sensor_id;sensor_type;location;lat;lon;timestamp;P1;durP1;ratioP1;P2;durP2;ratioP2
9166;SDS011;4618;48.818;9.088;2023-03-03T00:02:06;48.50;;;31.67;;
9166;SDS011;4618;48.818;9.088;2023-03-03T00:04:32;50.23;;;30.83;;
9166;SDS011;4618;48.818;9.088;2023-03-03T00:06:58;47.90;;;30.90;;
9166;SDS011;4618;48.818;9.088;2023-03-03T00:09:23;45.80;;;30.67;;
9166;SDS011;4618;48.818;9.088;2023-03-03T00:11:52;47.77;;;31.73;;
9166;SDS011;4618;48.818;9.088;2023-03-03T00:14:38;51.80;;;31.77;;
9166;SDS011;4618;48.818;9.088;2023-03-03T00:17:11;50.60;;;32.63;;
9166;SDS011;4618;48.818;9.088;2023-03-03T00:19:45;44.67;;;29.70;;
9166;SDS011;4618;48.818;9.088;2023-03-03T00:22:16;49.63;;;30.93;;
9166;SDS011;4618;48.818;9.088;2023-03-03T00:28:00;46.83;;;30.67;;
9166;SDS011;4618;48.818;9.088;2023-03-03T00:30:40;48.40;;;30.27;;
9166;SDS011;4618;48.818;9.088;2023-03-03T00:33:12;45.90;;;30.43;;
9166;SDS011;4618;48.818;9.088;2023-03-03T00:35:53;48.23;;;31.83;;
9166;SDS011;4618;48.818;9.088;2023-03-03T00:38:40;53.53;;;31.73;;
9166;SDS011;4618;48.818;9.088;2023-03-03T00:41:23;47.60;;;31.13;;
9166;SDS011;4618;48.818;9.088;2023-03-03T00:43:50;49.93;;;31.13;;
9166;SDS011;4618;48.818;9.088;2023-03-03T00:46:20;54.53;;;33.23;;
9166;SDS011;4618;48.818;9.088;2023-03-03T00:48:47;49.10;;;32.07;;
9166;SDS011;4618;48.818;9.088;2023-03-03T00:53:49;47.37;;;30.27;;
9166;SDS011;4618;48.818;9.088;2023-03-03T00:56:15;51.07;;;31.40;;
9166;SDS011;4618;48.818;9.088;2023-03-03T00:58:43;57.70;;;32.33;;
9166;SDS011;4618;48.818;9.088;2023-03-03T01:01:11;53.30;;;32.53;;
9166;SDS011;4618;48.818;9.088;2023-03-03T01:03:37;55.33;;;34.10;;
9166;SDS011;4618;48.818;9.088;2023-03-03T01:06:02;50.03;;;32.23;;
9166;SDS011;4618;48.818;9.088;2023-03-03T01:08:28;55.17;;;33.17;;
9166;SDS011;4618;48.818;9.088;2023-03-03T01:10:55;55.40;;;32.60;;
9166;SDS011;4618;48.818;9.088;2023-03-03T01:13:27;51.17;;;32.47;;
9166;SDS011;4618;48.818;9.088;2023-03-03T01:15:55;56.03;;;34.43;;
9166;SDS011;4618;48.818;9.088;2023-03-03T01:18:22;55.93;;;33.23;;
9166;SDS011;4618;48.818;9.088;2023-03-03T01:20:47;49.37;;;32.57;;
9166;SDS011;4618;48.818;9.088;2023-03-03T01:23:13;52.23;;;33.20;;
9166;SDS011;4618;48.818;9.088;2023-03-03T01:25:38;54.07;;;33.27;;
9166;SDS011;4618;48.818;9.088;2023-03-03T01:28:04;51.80;;;31.63;;
9166;SDS011;4618;48.818;9.088;2023-03-03T01:30:30;55.97;;;33.70;;
9166;SDS011;4618;48.818;9.088;2023-03-03T01:32:56;56.73;;;35.07;;
9166;SDS011;4618;48.818;9.088;2023-03-03T01:35:21;58.40;;;35.67;;
9166;SDS011;4618;48.818;9.088;2023-03-03T01:37:47;54.47;;;33.87;;
9166;SDS011;4618;48.818;9.088;2023-03-03T01:40:14;54.83;;;34.27;;
9166;SDS011;4618;48.818;9.088;2023-03-03T01:42:42;55.47;;;33.67;;
9166;SDS011;4618;48.818;9.088;2023-03-03T01:45:18;52.53;;;33.10;;
9166;SDS011;4618;48.818;9.088;2023-03-03T01:47:46;55.20;;;33.57;;
9166;SDS011;4618;48.818;9.088;2023-03-03T01:53:21;49.90;;;31.57;;
9166;SDS011;4618;48.818;9.088;2023-03-03T01:55:54;60.40;;;35.50;;
9166;SDS011;4618;48.818;9.088;2023-03-03T01:58:21;62.97;;;34.27;;
9166;SDS011;4618;48.818;9.088;2023-03-03T02:00:54;54.43;;;34.40;;
9166;SDS011;4618;48.818;9.088;2023-03-03T02:03:24;57.17;;;34.00;;
9166;SDS011;4618;48.818;9.088;2023-03-03T02:05:52;56.50;;;34.03;;
9166;SDS011;4618;48.818;9.088;2023-03-03T02:08:24;57.13;;;34.13;;
9166;SDS011;4618;48.818;9.088;2023-03-03T02:10:55;55.37;;;33.93;;
9166;SDS011;4618;48.818;9.088;2023-03-03T02:13:22;59.27;;;34.33;;
9166;SDS011;4618;48.818;9.088;2023-03-03T02:15:47;57.57;;;35.60;;
9166;SDS011;4618;48.818;9.088;2023-03-03T02:18:14;57.20;;;34.27;;
9166;SDS011;4618;48.818;9.088;2023-03-03T02:20:44;58.57;;;34.53;;
9166;SDS011;4618;48.818;9.088;2023-03-03T02:23:21;56.63;;;35.13;;
9166;SDS011;4618;48.818;9.088;2023-03-03T02:28:22;58.30;;;35.53;;
9166;SDS011;4618;48.818;9.088;2023-03-03T02:30:54;61.33;;;35.93;;
9166;SDS011;4618;48.818;9.088;2023-03-03T02:33:21;60.93;;;37.17;;
9166;SDS011;4618;48.818;9.088;2023-03-03T02:35:47;56.17;;;32.83;;
9166;SDS011;4618;48.818;9.088;2023-03-03T02:40:51;52.13;;;31.93;;
9166;SDS011;4618;48.818;9.088;2023-03-03T02:43:31;55.57;;;32.73;;
9166;SDS011;4618;48.818;9.088;2023-03-03T02:46:03;53.63;;;32.40;;
9166;SDS011;4618;48.818;9.088;2023-03-03T02:48:29;65.83;;;35.73;;
9166;SDS011;4618;48.818;9.088;2023-03-03T02:50:54;62.13;;;34.97;;
9166;SDS011;4618;48.818;9.088;2023-03-03T02:53:20;57.97;;;35.23;;
9166;SDS011;4618;48.818;9.088;2023-03-03T02:55:45;59.90;;;35.67;;
9166;SDS011;4618;48.818;9.088;2023-03-03T02:58:11;60.83;;;35.10;;
9166;SDS011;4618;48.818;9.088;2023-03-03T03:00:36;57.20;;;34.70;;
9166;SDS011;4618;48.818;9.088;2023-03-03T03:03:02;55.43;;;32.70;;
9166;SDS011;4618;48.818;9.088;2023-03-03T03:05:28;54.03;;;33.73;;
9166;SDS011;4618;48.818;9.088;2023-03-03T03:07:53;54.73;;;32.70;;
9166;SDS011;4618;48.818;9.088;2023-03-03T03:10:19;59.97;;;33.63;;
9166;SDS011;4618;48.818;9.088;2023-03-03T03:12:44;54.23;;;34.03;;
9166;SDS011;4618;48.818;9.088;2023-03-03T03:15:10;52.40;;;32.33;;
9166;SDS011;4618;48.818;9.088;2023-03-03T03:20:07;53.27;;;32.60;;
9166;SDS011;4618;48.818;9.088;2023-03-03T03:22:33;58.73;;;33.63;;
9166;SDS011;4618;48.818;9.088;2023-03-03T03:24:59;56.93;;;32.10;;
9166;SDS011;4618;48.818;9.088;2023-03-03T03:27:25;50.83;;;33.47;;
9166;SDS011;4618;48.818;9.088;2023-03-03T03:29:50;52.37;;;32.43;;
9166;SDS011;4618;48.818;9.088;2023-03-03T03:32:16;55.07;;;31.77;;
9166;SDS011;4618;48.818;9.088;2023-03-03T03:34:42;49.33;;;30.70;;
9166;SDS011;4618;48.818;9.088;2023-03-03T03:37:07;53.70;;;31.63;;
9166;SDS011;4618;48.818;9.088;2023-03-03T03:39:33;51.20;;;31.77;;
9166;SDS011;4618;48.818;9.088;2023-03-03T03:41:59;51.20;;;31.33;;
9166;SDS011;4618;48.818;9.088;2023-03-03T03:44:25;57.03;;;32.23;;
9166;SDS011;4618;48.818;9.088;2023-03-03T03:46:51;46.67;;;30.27;;
9166;SDS011;4618;48.818;9.088;2023-03-03T03:49:16;50.80;;;31.93;;
9166;SDS011;4618;48.818;9.088;2023-03-03T03:51:42;45.73;;;30.40;;
9166;SDS011;4618;48.818;9.088;2023-03-03T03:54:07;45.50;;;30.50;;
9166;SDS011;4618;48.818;9.088;2023-03-03T03:56:33;47.53;;;29.03;;
9166;SDS011;4618;48.818;9.088;2023-03-03T03:58:58;45.10;;;30.37;;
9166;SDS011;4618;48.818;9.088;2023-03-03T04:01:25;45.67;;;30.00;;
9166;SDS011;4618;48.818;9.088;2023-03-03T04:03:50;46.80;;;30.07;;
9166;SDS011;4618;48.818;9.088;2023-03-03T04:06:16;45.13;;;30.17;;
9166;SDS011;4618;48.818;9.088;2023-03-03T04:08:42;44.67;;;30.03;;
9166;SDS011;4618;48.818;9.088;2023-03-03T04:11:07;46.13;;;32.00;;
9166;SDS011;4618;48.818;9.088;2023-03-03T04:13:33;47.37;;;30.50;;
9166;SDS011;4618;48.818;9.088;2023-03-03T04:15:59;48.43;;;30.90;;
9166;SDS011;4618;48.818;9.088;2023-03-03T04:18:25;50.60;;;31.13;;
9166;SDS011;4618;48.818;9.088;2023-03-03T04:20:51;46.77;;;30.17;;
9166;SDS011;4618;48.818;9.088;2023-03-03T04:23:18;46.97;;;31.67;;
9166;SDS011;4618;48.818;9.088;2023-03-03T04:25:45;52.20;;;31.30;;
9166;SDS011;4618;48.818;9.088;2023-03-03T04:28:11;51.00;;;31.63;;
9166;SDS011;4618;48.818;9.088;2023-03-03T04:30:37;48.60;;;30.83;;
9166;SDS011;4618;48.818;9.088;2023-03-03T04:33:03;50.77;;;31.60;;
9166;SDS011;4618;48.818;9.088;2023-03-03T04:35:29;45.20;;;30.87;;
9166;SDS011;4618;48.818;9.088;2023-03-03T04:37:54;47.83;;;30.83;;
9166;SDS011;4618;48.818;9.088;2023-03-03T04:40:20;49.30;;;31.90;;
9166;SDS011;4618;48.818;9.088;2023-03-03T04:42:45;49.63;;;29.70;;
9166;SDS011;4618;48.818;9.088;2023-03-03T04:45:11;49.83;;;30.60;;
9166;SDS011;4618;48.818;9.088;2023-03-03T04:47:37;49.20;;;30.73;;
9166;SDS011;4618;48.818;9.088;2023-03-03T04:50:03;47.53;;;29.53;;
9166;SDS011;4618;48.818;9.088;2023-03-03T04:52:29;47.50;;;30.70;;
9166;SDS011;4618;48.818;9.088;2023-03-03T04:54:54;51.13;;;31.50;;
9166;SDS011;4618;48.818;9.088;2023-03-03T04:57:20;49.90;;;32.33;;
9166;SDS011;4618;48.818;9.088;2023-03-03T04:59:45;55.73;;;31.30;;
9166;SDS011;4618;48.818;9.088;2023-03-03T05:02:11;49.87;;;31.27;;
9166;SDS011;4618;48.818;9.088;2023-03-03T05:04:37;51.67;;;32.13;;
9166;SDS011;4618;48.818;9.088;2023-03-03T05:07:02;55.33;;;31.87;;
9166;SDS011;4618;48.818;9.088;2023-03-03T05:09:28;47.70;;;30.73;;
9166;SDS011;4618;48.818;9.088;2023-03-03T05:11:54;49.60;;;32.47;;
9166;SDS011;4618;48.818;9.088;2023-03-03T05:14:20;55.33;;;31.70;;
9166;SDS011;4618;48.818;9.088;2023-03-03T05:16:45;53.03;;;32.27;;
9166;SDS011;4618;48.818;9.088;2023-03-03T05:19:11;49.70;;;31.40;;
9166;SDS011;4618;48.818;9.088;2023-03-03T05:21:37;52.00;;;32.47;;
9166;SDS011;4618;48.818;9.088;2023-03-03T05:24:06;54.83;;;33.57;;
9166;SDS011;4618;48.818;9.088;2023-03-03T05:26:32;49.20;;;31.47;;
9166;SDS011;4618;48.818;9.088;2023-03-03T05:28:58;48.70;;;32.07;;
9166;SDS011;4618;48.818;9.088;2023-03-03T05:31:24;49.77;;;31.57;;
9166;SDS011;4618;48.818;9.088;2023-03-03T05:33:51;48.13;;;30.13;;
9166;SDS011;4618;48.818;9.088;2023-03-03T05:36:17;53.40;;;33.20;;
9166;SDS011;4618;48.818;9.088;2023-03-03T05:38:42;47.33;;;29.77;;
9166;SDS011;4618;48.818;9.088;2023-03-03T05:41:08;48.60;;;32.23;;
9166;SDS011;4618;48.818;9.088;2023-03-03T05:43:34;50.30;;;31.33;;
9166;SDS011;4618;48.818;9.088;2023-03-03T05:45:59;47.63;;;31.70;;
9166;SDS011;4618;48.818;9.088;2023-03-03T05:48:25;50.83;;;31.50;;
9166;SDS011;4618;48.818;9.088;2023-03-03T05:50:51;48.47;;;31.40;;
9166;SDS011;4618;48.818;9.088;2023-03-03T05:53:17;48.63;;;32.20;;
9166;SDS011;4618;48.818;9.088;2023-03-03T05:55:42;49.20;;;31.37;;
9166;SDS011;4618;48.818;9.088;2023-03-03T05:58:08;49.20;;;31.43;;
9166;SDS011;4618;48.818;9.088;2023-03-03T06:00:34;50.23;;;32.03;;
9166;SDS011;4618;48.818;9.088;2023-03-03T06:02:59;50.80;;;32.70;;
9166;SDS011;4618;48.818;9.088;2023-03-03T06:05:25;57.90;;;33.77;;
9166;SDS011;4618;48.818;9.088;2023-03-03T06:07:51;51.07;;;31.97;;
9166;SDS011;4618;48.818;9.088;2023-03-03T06:10:16;47.30;;;31.33;;
9166;SDS011;4618;48.818;9.088;2023-03-03T06:12:42;50.20;;;31.67;;
9166;SDS011;4618;48.818;9.088;2023-03-03T06:15:08;52.13;;;33.23;;
9166;SDS011;4618;48.818;9.088;2023-03-03T06:17:34;47.77;;;32.57;;
9166;SDS011;4618;48.818;9.088;2023-03-03T06:20:00;50.33;;;31.37;;
9166;SDS011;4618;48.818;9.088;2023-03-03T06:22:25;49.70;;;30.30;;
9166;SDS011;4618;48.818;9.088;2023-03-03T06:24:51;47.73;;;31.13;;
9166;SDS011;4618;48.818;9.088;2023-03-03T06:27:17;51.73;;;34.17;;
9166;SDS011;4618;48.818;9.088;2023-03-03T06:29:43;53.27;;;33.20;;
9166;SDS011;4618;48.818;9.088;2023-03-03T06:32:09;49.60;;;31.83;;
9166;SDS011;4618;48.818;9.088;2023-03-03T06:34:35;44.77;;;29.23;;
9166;SDS011;4618;48.818;9.088;2023-03-03T06:37:00;46.03;;;30.93;;
9166;SDS011;4618;48.818;9.088;2023-03-03T06:39:26;48.50;;;31.07;;
9166;SDS011;4618;48.818;9.088;2023-03-03T06:41:52;48.10;;;28.73;;
9166;SDS011;4618;48.818;9.088;2023-03-03T06:44:17;42.90;;;28.17;;
9166;SDS011;4618;48.818;9.088;2023-03-03T06:46:43;46.70;;;29.50;;
9166;SDS011;4618;48.818;9.088;2023-03-03T06:49:09;44.47;;;29.17;;
9166;SDS011;4618;48.818;9.088;2023-03-03T06:51:35;44.60;;;29.30;;
9166;SDS011;4618;48.818;9.088;2023-03-03T06:54:12;44.40;;;30.20;;
9166;SDS011;4618;48.818;9.088;2023-03-03T06:56:42;44.07;;;28.70;;
9166;SDS011;4618;48.818;9.088;2023-03-03T06:59:10;44.33;;;30.23;;
9166;SDS011;4618;48.818;9.088;2023-03-03T07:01:44;43.37;;;29.17;;
9166;SDS011;4618;48.818;9.088;2023-03-03T07:06:49;43.77;;;30.27;;
9166;SDS011;4618;48.818;9.088;2023-03-03T07:09:20;44.10;;;30.30;;
9166;SDS011;4618;48.818;9.088;2023-03-03T07:12:00;45.27;;;29.80;;
9166;SDS011;4618;48.818;9.088;2023-03-03T07:14:30;45.13;;;30.13;;
9166;SDS011;4618;48.818;9.088;2023-03-03T07:16:56;43.87;;;28.67;;
9166;SDS011;4618;48.818;9.088;2023-03-03T07:19:34;45.03;;;27.77;;
9166;SDS011;4618;48.818;9.088;2023-03-03T07:22:07;40.20;;;25.97;;
9166;SDS011;4618;48.818;9.088;2023-03-03T07:24:36;38.40;;;24.30;;
9166;SDS011;4618;48.818;9.088;2023-03-03T07:29:31;31.33;;;24.23;;
9166;SDS011;4618;48.818;9.088;2023-03-03T07:31:58;31.40;;;21.57;;
9166;SDS011;4618;48.818;9.088;2023-03-03T07:34:39;33.50;;;21.97;;
9166;SDS011;4618;48.818;9.088;2023-03-03T07:37:34;27.00;;;19.97;;
9166;SDS011;4618;48.818;9.088;2023-03-03T07:39:58;29.43;;;20.80;;
9166;SDS011;4618;48.818;9.088;2023-03-03T07:45:01;25.87;;;18.93;;
9166;SDS011;4618;48.818;9.088;2023-03-03T07:47:44;26.90;;;18.77;;
9166;SDS011;4618;48.818;9.088;2023-03-03T07:50:13;24.93;;;17.43;;
9166;SDS011;4618;48.818;9.088;2023-03-03T07:55:26;25.87;;;18.13;;
9166;SDS011;4618;48.818;9.088;2023-03-03T07:58:59;24.33;;;17.83;;
9166;SDS011;4618;48.818;9.088;2023-03-03T08:03:47;25.33;;;18.13;;
9166;SDS011;4618;48.818;9.088;2023-03-03T08:09:24;27.20;;;18.83;;
9166;SDS011;4618;48.818;9.088;2023-03-03T08:14:34;28.00;;;18.27;;
9166;SDS011;4618;48.818;9.088;2023-03-03T08:17:01;28.47;;;18.70;;
9166;SDS011;4618;48.818;9.088;2023-03-03T08:19:38;26.33;;;17.80;;
9166;SDS011;4618;48.818;9.088;2023-03-03T08:22:17;27.93;;;18.70;;
9166;SDS011;4618;48.818;9.088;2023-03-03T08:24:55;28.27;;;19.40;;
9166;SDS011;4618;48.818;9.088;2023-03-03T08:27:21;27.33;;;19.43;;
9166;SDS011;4618;48.818;9.088;2023-03-03T08:29:46;29.03;;;19.27;;
9166;SDS011;4618;48.818;9.088;2023-03-03T08:32:14;26.53;;;19.00;;
9166;SDS011;4618;48.818;9.088;2023-03-03T08:34:40;26.00;;;18.47;;
9166;SDS011;4618;48.818;9.088;2023-03-03T08:37:05;27.93;;;17.60;;
9166;SDS011;4618;48.818;9.088;2023-03-03T08:39:31;23.10;;;17.23;;
9166;SDS011;4618;48.818;9.088;2023-03-03T08:41:56;24.30;;;18.90;;
9166;SDS011;4618;48.818;9.088;2023-03-03T08:44:22;24.87;;;19.10;;
9166;SDS011;4618;48.818;9.088;2023-03-03T08:46:48;24.03;;;18.63;;
9166;SDS011;4618;48.818;9.088;2023-03-03T08:49:13;27.57;;;19.03;;
9166;SDS011;4618;48.818;9.088;2023-03-03T08:51:39;24.17;;;19.13;;
9166;SDS011;4618;48.818;9.088;2023-03-03T08:54:04;25.03;;;19.87;;
9166;SDS011;4618;48.818;9.088;2023-03-03T08:56:30;22.93;;;17.47;;
9166;SDS011;4618;48.818;9.088;2023-03-03T08:58:56;23.73;;;17.70;;
9166;SDS011;4618;48.818;9.088;2023-03-03T09:01:22;23.97;;;18.10;;
9166;SDS011;4618;48.818;9.088;2023-03-03T09:03:48;19.73;;;16.17;;
9166;SDS011;4618;48.818;9.088;2023-03-03T09:06:14;19.47;;;15.73;;
9166;SDS011;4618;48.818;9.088;2023-03-03T09:08:40;20.27;;;16.77;;
9166;SDS011;4618;48.818;9.088;2023-03-03T09:11:11;23.70;;;16.97;;
9166;SDS011;4618;48.818;9.088;2023-03-03T09:13:37;19.93;;;16.70;;
9166;SDS011;4618;48.818;9.088;2023-03-03T09:16:06;19.97;;;16.70;;
9166;SDS011;4618;48.818;9.088;2023-03-03T09:18:39;19.77;;;17.57;;
9166;SDS011;4618;48.818;9.088;2023-03-03T09:21:20;20.90;;;17.20;;
9166;SDS011;4618;48.818;9.088;2023-03-03T09:23:57;20.73;;;17.07;;
9166;SDS011;4618;48.818;9.088;2023-03-03T09:26:57;19.07;;;16.93;;
9166;SDS011;4618;48.818;9.088;2023-03-03T09:29:18;19.57;;;16.93;;
9166;SDS011;4618;48.818;9.088;2023-03-03T09:31:50;20.30;;;17.43;;
9166;SDS011;4618;48.818;9.088;2023-03-03T09:34:51;21.30;;;18.17;;
9166;SDS011;4618;48.818;9.088;2023-03-03T09:39:47;24.80;;;18.60;;
9166;SDS011;4618;48.818;9.088;2023-03-03T09:55:43;21.43;;;18.37;;
9166;SDS011;4618;48.818;9.088;2023-03-03T10:01:18;24.20;;;19.27;;
9166;SDS011;4618;48.818;9.088;2023-03-03T10:12:46;22.90;;;19.80;;
9166;SDS011;4618;48.818;9.088;2023-03-03T10:15:35;21.27;;;18.97;;
9166;SDS011;4618;48.818;9.088;2023-03-03T10:20:45;24.20;;;20.30;;
9166;SDS011;4618;48.818;9.088;2023-03-03T10:23:26;25.80;;;19.73;;
9166;SDS011;4618;48.818;9.088;2023-03-03T10:26:23;22.83;;;19.90;;
9166;SDS011;4618;48.818;9.088;2023-03-03T10:29:07;23.70;;;19.50;;
9166;SDS011;4618;48.818;9.088;2023-03-03T10:34:29;25.73;;;20.23;;
9166;SDS011;4618;48.818;9.088;2023-03-03T10:37:06;23.23;;;20.73;;
9166;SDS011;4618;48.818;9.088;2023-03-03T10:39:53;24.53;;;20.63;;
9166;SDS011;4618;48.818;9.088;2023-03-03T10:47:57;23.73;;;20.73;;
9166;SDS011;4618;48.818;9.088;2023-03-03T10:50:43;24.63;;;20.70;;
9166;SDS011;4618;48.818;9.088;2023-03-03T10:53:28;25.10;;;22.07;;
9166;SDS011;4618;48.818;9.088;2023-03-03T10:56:10;25.03;;;21.07;;
9166;SDS011;4618;48.818;9.088;2023-03-03T11:01:57;23.57;;;21.07;;
9166;SDS011;4618;48.818;9.088;2023-03-03T11:04:52;24.77;;;22.03;;
9166;SDS011;4618;48.818;9.088;2023-03-03T11:07:43;26.40;;;21.87;;
9166;SDS011;4618;48.818;9.088;2023-03-03T11:13:15;24.33;;;21.73;;
9166;SDS011;4618;48.818;9.088;2023-03-03T11:16:09;23.77;;;20.63;;
9166;SDS011;4618;48.818;9.088;2023-03-03T11:21:59;22.77;;;20.37;;
9166;SDS011;4618;48.818;9.088;2023-03-03T11:33:06;22.83;;;19.27;;
9166;SDS011;4618;48.818;9.088;2023-03-03T11:36:01;22.33;;;19.53;;
9166;SDS011;4618;48.818;9.088;2023-03-03T11:39:13;25.43;;;20.13;;
9166;SDS011;4618;48.818;9.088;2023-03-03T11:41:49;24.20;;;19.63;;
9166;SDS011;4618;48.818;9.088;2023-03-03T11:44:36;23.57;;;19.63;;
9166;SDS011;4618;48.818;9.088;2023-03-03T11:47:23;21.80;;;18.23;;
9166;SDS011;4618;48.818;9.088;2023-03-03T11:55:20;23.67;;;19.33;;
9166;SDS011;4618;48.818;9.088;2023-03-03T11:58:18;23.57;;;19.17;;
9166;SDS011;4618;48.818;9.088;2023-03-03T12:00:56;23.13;;;18.83;;
9166;SDS011;4618;48.818;9.088;2023-03-03T12:11:32;24.50;;;18.40;;
9166;SDS011;4618;48.818;9.088;2023-03-03T12:16:58;22.13;;;19.00;;
9166;SDS011;4618;48.818;9.088;2023-03-03T12:19:33;25.80;;;19.90;;
9166;SDS011;4618;48.818;9.088;2023-03-03T12:27:28;24.10;;;19.47;;
9166;SDS011;4618;48.818;9.088;2023-03-03T12:33:22;23.50;;;19.47;;
9166;SDS011;4618;48.818;9.088;2023-03-03T12:49:05;22.43;;;19.73;;
9166;SDS011;4618;48.818;9.088;2023-03-03T12:51:54;23.40;;;19.03;;
9166;SDS011;4618;48.818;9.088;2023-03-03T13:03:09;23.37;;;20.10;;
9166;SDS011;4618;48.818;9.088;2023-03-03T13:09:38;23.73;;;21.13;;
9166;SDS011;4618;48.818;9.088;2023-03-03T13:11:53;23.00;;;20.47;;
9166;SDS011;4618;48.818;9.088;2023-03-03T13:14:28;22.53;;;19.63;;
9166;SDS011;4618;48.818;9.088;2023-03-03T13:17:21;22.27;;;19.87;;
9166;SDS011;4618;48.818;9.088;2023-03-03T13:22:26;23.17;;;20.53;;
9166;SDS011;4618;48.818;9.088;2023-03-03T13:28:02;22.87;;;20.47;;
9166;SDS011;4618;48.818;9.088;2023-03-03T13:30:37;24.13;;;21.23;;
9166;SDS011;4618;48.818;9.088;2023-03-03T13:33:14;24.67;;;21.27;;
9166;SDS011;4618;48.818;9.088;2023-03-03T13:35:49;23.47;;;20.93;;
9166;SDS011;4618;48.818;9.088;2023-03-03T13:38:30;22.27;;;19.80;;
9166;SDS011;4618;48.818;9.088;2023-03-03T13:43:57;25.17;;;22.38;;
9166;SDS011;4618;48.818;9.088;2023-03-03T13:46:39;25.70;;;22.13;;
9166;SDS011;4618;48.818;9.088;2023-03-03T13:52:01;27.97;;;22.67;;
9166;SDS011;4618;48.818;9.088;2023-03-03T13:57:23;25.30;;;21.77;;
9166;SDS011;4618;48.818;9.088;2023-03-03T14:00:16;24.80;;;20.83;;
9166;SDS011;4618;48.818;9.088;2023-03-03T14:06:03;24.20;;;21.60;;
9166;SDS011;4618;48.818;9.088;2023-03-03T14:11:29;24.07;;;21.47;;
9166;SDS011;4618;48.818;9.088;2023-03-03T14:14:24;26.33;;;22.63;;
9166;SDS011;4618;48.818;9.088;2023-03-03T14:17:16;24.47;;;21.37;;
9166;SDS011;4618;48.818;9.088;2023-03-03T14:23:13;25.20;;;21.60;;
9166;SDS011;4618;48.818;9.088;2023-03-03T14:28:45;27.43;;;22.10;;
9166;SDS011;4618;48.818;9.088;2023-03-03T14:31:19;25.17;;;22.47;;
9166;SDS011;4618;48.818;9.088;2023-03-03T14:34:02;24.23;;;21.67;;
9166;SDS011;4618;48.818;9.088;2023-03-03T14:36:56;23.70;;;21.10;;
9166;SDS011;4618;48.818;9.088;2023-03-03T14:39:34;25.33;;;22.57;;
9166;SDS011;4618;48.818;9.088;2023-03-03T14:42:28;26.67;;;22.90;;
9166;SDS011;4618;48.818;9.088;2023-03-03T14:44:58;24.57;;;21.50;;
9166;SDS011;4618;48.818;9.088;2023-03-03T14:47:25;25.43;;;21.80;;
9166;SDS011;4618;48.818;9.088;2023-03-03T14:49:53;27.93;;;22.20;;
9166;SDS011;4618;48.818;9.088;2023-03-03T14:52:25;27.87;;;23.07;;
9166;SDS011;4618;48.818;9.088;2023-03-03T14:54:56;26.27;;;21.77;;
9166;SDS011;4618;48.818;9.088;2023-03-03T15:03:00;29.03;;;23.13;;
9166;SDS011;4618;48.818;9.088;2023-03-03T15:05:31;24.90;;;22.10;;
9166;SDS011;4618;48.818;9.088;2023-03-03T15:10:36;27.93;;;22.83;;
9166;SDS011;4618;48.818;9.088;2023-03-03T15:18:28;25.43;;;22.63;;
9166;SDS011;4618;48.818;9.088;2023-03-03T15:21:02;29.63;;;22.97;;
9166;SDS011;4618;48.818;9.088;2023-03-03T15:26:51;28.17;;;22.23;;
9166;SDS011;4618;48.818;9.088;2023-03-03T15:29:24;27.93;;;21.90;;
9166;SDS011;4618;48.818;9.088;2023-03-03T15:34:43;26.53;;;23.47;;
9166;SDS011;4618;48.818;9.088;2023-03-03T15:37:23;30.63;;;23.03;;
9166;SDS011;4618;48.818;9.088;2023-03-03T15:53:56;26.80;;;21.77;;
9166;SDS011;4618;48.818;9.088;2023-03-03T16:01:57;29.63;;;23.67;;
9166;SDS011;4618;48.818;9.088;2023-03-03T16:04:33;28.50;;;22.70;;
9166;SDS011;4618;48.818;9.088;2023-03-03T16:12:35;28.87;;;22.23;;
9166;SDS011;4618;48.818;9.088;2023-03-03T16:15:41;29.17;;;21.83;;
9166;SDS011;4618;48.818;9.088;2023-03-03T16:21:13;30.53;;;22.07;;
9166;SDS011;4618;48.818;9.088;2023-03-03T16:24:09;27.87;;;22.27;;
9166;SDS011;4618;48.818;9.088;2023-03-03T16:26:53;28.60;;;22.33;;
9166;SDS011;4618;48.818;9.088;2023-03-03T16:37:40;28.23;;;22.50;;
9166;SDS011;4618;48.818;9.088;2023-03-03T16:40:10;30.17;;;22.47;;
9166;SDS011;4618;48.818;9.088;2023-03-03T16:42:44;30.67;;;22.50;;
9166;SDS011;4618;48.818;9.088;2023-03-03T16:56:22;30.97;;;22.90;;
9166;SDS011;4618;48.818;9.088;2023-03-03T17:04:44;30.90;;;22.07;;
9166;SDS011;4618;48.818;9.088;2023-03-03T17:10:26;32.80;;;21.83;;
9166;SDS011;4618;48.818;9.088;2023-03-03T17:13:00;35.10;;;21.93;;
9166;SDS011;4618;48.818;9.088;2023-03-03T17:15:50;34.53;;;22.77;;
9166;SDS011;4618;48.818;9.088;2023-03-03T17:21:02;38.33;;;23.20;;
9166;SDS011;4618;48.818;9.088;2023-03-03T17:23:41;40.80;;;23.77;;
9166;SDS011;4618;48.818;9.088;2023-03-03T17:37:13;45.57;;;24.03;;
9166;SDS011;4618;48.818;9.088;2023-03-03T17:42:35;40.23;;;23.50;;
9166;SDS011;4618;48.818;9.088;2023-03-03T17:45:09;38.90;;;23.03;;
9166;SDS011;4618;48.818;9.088;2023-03-03T17:59:02;39.33;;;25.83;;
9166;SDS011;4618;48.818;9.088;2023-03-03T18:04:21;39.27;;;25.93;;
9166;SDS011;4618;48.818;9.088;2023-03-03T18:07:15;40.77;;;26.73;;
9166;SDS011;4618;48.818;9.088;2023-03-03T18:23:51;39.33;;;27.33;;
9166;SDS011;4618;48.818;9.088;2023-03-03T18:26:49;39.80;;;27.57;;
9166;SDS011;4618;48.818;9.088;2023-03-03T18:31:48;40.33;;;26.70;;
9166;SDS011;4618;48.818;9.088;2023-03-03T18:42:09;41.13;;;27.33;;
9166;SDS011;4618;48.818;9.088;2023-03-03T18:44:54;44.90;;;28.93;;
9166;SDS011;4618;48.818;9.088;2023-03-03T18:47:21;42.43;;;28.67;;
9166;SDS011;4618;48.818;9.088;2023-03-03T18:55:53;42.33;;;27.93;;
9166;SDS011;4618;48.818;9.088;2023-03-03T18:58:38;43.50;;;28.83;;
9166;SDS011;4618;48.818;9.088;2023-03-03T19:01:31;40.07;;;26.67;;
9166;SDS011;4618;48.818;9.088;2023-03-03T19:04:02;40.63;;;28.30;;
9166;SDS011;4618;48.818;9.088;2023-03-03T19:09:03;40.23;;;27.87;;
9166;SDS011;4618;48.818;9.088;2023-03-03T19:16:51;42.37;;;28.57;;
9166;SDS011;4618;48.818;9.088;2023-03-03T19:19:19;43.10;;;28.17;;
9166;SDS011;4618;48.818;9.088;2023-03-03T19:22:19;42.53;;;28.50;;
9166;SDS011;4618;48.818;9.088;2023-03-03T19:47:03;42.10;;;26.67;;
9166;SDS011;4618;48.818;9.088;2023-03-03T19:57:42;44.77;;;27.93;;
9166;SDS011;4618;48.818;9.088;2023-03-03T20:00:25;39.63;;;26.10;;
9166;SDS011;4618;48.818;9.088;2023-03-03T20:05:47;43.70;;;28.30;;
9166;SDS011;4618;48.818;9.088;2023-03-03T20:08:22;40.10;;;27.17;;
9166;SDS011;4618;48.818;9.088;2023-03-03T20:13:48;38.33;;;25.73;;
9166;SDS011;4618;48.818;9.088;2023-03-03T20:16:32;40.43;;;25.27;;
9166;SDS011;4618;48.818;9.088;2023-03-03T20:24:53;40.87;;;25.67;;
9166;SDS011;4618;48.818;9.088;2023-03-03T20:33:23;39.93;;;25.10;;
9166;SDS011;4618;48.818;9.088;2023-03-03T20:36:03;40.37;;;27.23;;
9166;SDS011;4618;48.818;9.088;2023-03-03T20:44:19;43.73;;;26.87;;
9166;SDS011;4618;48.818;9.088;2023-03-03T20:47:11;41.07;;;26.63;;
9166;SDS011;4618;48.818;9.088;2023-03-03T20:55:36;41.03;;;27.00;;
9166;SDS011;4618;48.818;9.088;2023-03-03T20:58:49;43.00;;;27.60;;
9166;SDS011;4618;48.818;9.088;2023-03-03T21:01:35;43.23;;;27.17;;
9166;SDS011;4618;48.818;9.088;2023-03-03T21:06:51;44.60;;;28.30;;
9166;SDS011;4618;48.818;9.088;2023-03-03T21:09:21;48.03;;;29.60;;
9166;SDS011;4618;48.818;9.088;2023-03-03T21:11:46;41.83;;;27.73;;
9166;SDS011;4618;48.818;9.088;2023-03-03T21:14:16;38.80;;;26.43;;
9166;SDS011;4618;48.818;9.088;2023-03-03T21:16:46;46.70;;;29.07;;
9166;SDS011;4618;48.818;9.088;2023-03-03T21:19:21;40.33;;;26.40;;
9166;SDS011;4618;48.818;9.088;2023-03-03T21:21:52;42.70;;;27.00;;
9166;SDS011;4618;48.818;9.088;2023-03-03T21:24:18;39.20;;;26.13;;
9166;SDS011;4618;48.818;9.088;2023-03-03T21:31:56;45.03;;;28.57;;
9166;SDS011;4618;48.818;9.088;2023-03-03T21:36:56;45.47;;;28.37;;
9166;SDS011;4618;48.818;9.088;2023-03-03T21:39:36;43.37;;;27.03;;
9166;SDS011;4618;48.818;9.088;2023-03-03T21:44:35;46.13;;;28.57;;